sensor_id;sensor_type;location;lat;lon;timestamp;temperature;humidity
18392;DHT22;9322;50.932;5.318;2023-06-22T00:02:13;21.40;1.40
18392;DHT22;9322;50.932;5.318;2023-06-22T00:04:38;21.40;1.40
18392;DHT22;9322;50.932;5.318;2023-06-22T00:07:04;21.40;1.40
18392;DHT22;9322;50.932;5.318;2023-06-22T00:09:31;21.40;1.40
18392;DHT22;9322;50.932;5.318;2023-06-22T00:11:56;21.30;1.40
18392;DHT22;9322;50.932;5.318;2023-06-22T00:14:22;21.30;1.40
18392;DHT22;9322;50.932;5.318;2023-06-22T00:16:48;21.30;1.40
18392;DHT22;9322;50.932;5.318;2023-06-22T00:19:15;21.30;1.40
18392;DHT22;9322;50.932;5.318;2023-06-22T00:21:41;21.30;1.40
18392;DHT22;9322;50.932;5.318;2023-06-22T00:24:07;21.30;1.40
18392;DHT22;9322;50.932;5.318;2023-06-22T00:26:33;21.30;1.40
18392;DHT22;9322;50.932;5.318;2023-06-22T00:28:59;21.40;1.40
18392;DHT22;9322;50.932;5.318;2023-06-22T00:31:24;21.30;1.40
18392;DHT22;9322;50.932;5.318;2023-06-22T00:33:50;21.30;1.40
18392;DHT22;9322;50.932;5.318;2023-06-22T00:36:16;21.30;1.40
18392;DHT22;9322;50.932;5.318;2023-06-22T00:38:43;21.30;1.40
18392;DHT22;9322;50.932;5.318;2023-06-22T00:41:08;21.40;1.40
18392;DHT22;9322;50.932;5.318;2023-06-22T00:43:34;21.40;1.40
18392;DHT22;9322;50.932;5.318;2023-06-22T00:46:00;21.40;1.40
18392;DHT22;9322;50.932;5.318;2023-06-22T00:48:26;21.30;1.40
18392;DHT22;9322;50.932;5.318;2023-06-22T00:50:52;21.40;1.40
18392;DHT22;9322;50.932;5.318;2023-06-22T00:53:19;21.30;1.40
18392;DHT22;9322;50.932;5.318;2023-06-22T00:55:45;21.40;1.40
18392;DHT22;9322;50.932;5.318;2023-06-22T00:58:12;21.50;1.40
18392;DHT22;9322;50.932;5.318;2023-06-22T01:00:41;21.50;1.40
18392;DHT22;9322;50.932;5.318;2023-06-22T01:03:08;21.40;1.40
18392;DHT22;9322;50.932;5.318;2023-06-22T01:05:35;21.30;1.40
18392;DHT22;9322;50.932;5.318;2023-06-22T01:08:21;21.40;1.40
18392;DHT22;9322;50.932;5.318;2023-06-22T01:10:53;21.40;1.40
18392;DHT22;9322;50.932;5.318;2023-06-22T01:13:31;21.30;1.40
18392;DHT22;9322;50.932;5.318;2023-06-22T01:16:12;21.30;1.40
18392;DHT22;9322;50.932;5.318;2023-06-22T01:18:42;21.40;1.40
18392;DHT22;9322;50.932;5.318;2023-06-22T01:21:13;21.30;1.40
18392;DHT22;9322;50.932;5.318;2023-06-22T01:23:53;21.30;1.40
18392;DHT22;9322;50.932;5.318;2023-06-22T01:29:11;21.10;1.40
18392;DHT22;9322;50.932;5.318;2023-06-22T01:31:40;21.10;1.40
18392;DHT22;9322;50.932;5.318;2023-06-22T01:34:08;21.20;1.40
18392;DHT22;9322;50.932;5.318;2023-06-22T01:36:35;21.10;1.40
18392;DHT22;9322;50.932;5.318;2023-06-22T01:39:02;21.10;1.40
18392;DHT22;9322;50.932;5.318;2023-06-22T01:41:35;21.10;1.40
18392;DHT22;9322;50.932;5.318;2023-06-22T01:44:01;21.10;1.40
18392;DHT22;9322;50.932;5.318;2023-06-22T01:46:29;21.10;1.40
18392;DHT22;9322;50.932;5.318;2023-06-22T01:48:55;21.10;1.40
18392;DHT22;9322;50.932;5.318;2023-06-22T01:51:20;21.00;1.40
18392;DHT22;9322;50.932;5.318;2023-06-22T01:53:46;20.90;1.40
18392;DHT22;9322;50.932;5.318;2023-06-22T01:56:14;20.90;1.40
18392;DHT22;9322;50.932;5.318;2023-06-22T01:58:50;20.90;1.40
18392;DHT22;9322;50.932;5.318;2023-06-22T02:01:21;20.80;1.40
18392;DHT22;9322;50.932;5.318;2023-06-22T02:04:05;20.70;1.40
18392;DHT22;9322;50.932;5.318;2023-06-22T02:06:39;20.70;1.40
18392;DHT22;9322;50.932;5.318;2023-06-22T02:09:13;20.70;1.40
18392;DHT22;9322;50.932;5.318;2023-06-22T02:11:41;20.60;1.40
18392;DHT22;9322;50.932;5.318;2023-06-22T02:14:09;20.60;1.40
18392;DHT22;9322;50.932;5.318;2023-06-22T02:16:35;20.70;1.40
18392;DHT22;9322;50.932;5.318;2023-06-22T02:19:02;20.70;1.40
18392;DHT22;9322;50.932;5.318;2023-06-22T02:21:32;20.70;1.40
18392;DHT22;9322;50.932;5.318;2023-06-22T02:23:58;20.70;1.40
18392;DHT22;9322;50.932;5.318;2023-06-22T02:26:25;20.70;1.40
18392;DHT22;9322;50.932;5.318;2023-06-22T02:28:51;20.70;1.40
18392;DHT22;9322;50.932;5.318;2023-06-22T02:31:17;20.60;1.40
18392;DHT22;9322;50.932;5.318;2023-06-22T02:33:43;20.50;1.40
18392;DHT22;9322;50.932;5.318;2023-06-22T02:36:09;20.40;1.40
18392;DHT22;9322;50.932;5.318;2023-06-22T02:38:40;20.30;1.40
18392;DHT22;9322;50.932;5.318;2023-06-22T02:41:17;20.30;1.40
18392;DHT22;9322;50.932;5.318;2023-06-22T02:43:44;20.30;1.40
18392;DHT22;9322;50.932;5.318;2023-06-22T02:46:11;20.50;1.40
18392;DHT22;9322;50.932;5.318;2023-06-22T02:48:38;20.70;1.40
18392;DHT22;9322;50.932;5.318;2023-06-22T02:51:04;20.70;1.40
18392;DHT22;9322;50.932;5.318;2023-06-22T02:53:29;20.70;1.40
18392;DHT22;9322;50.932;5.318;2023-06-22T02:55:55;20.70;1.40
18392;DHT22;9322;50.932;5.318;2023-06-22T02:58:21;20.60;1.40
18392;DHT22;9322;50.932;5.318;2023-06-22T03:00:46;20.60;1.40
18392;DHT22;9322;50.932;5.318;2023-06-22T03:03:12;20.50;1.40
18392;DHT22;9322;50.932;5.318;2023-06-22T03:05:37;20.50;1.40
18392;DHT22;9322;50.932;5.318;2023-06-22T03:08:05;20.50;1.40
18392;DHT22;9322;50.932;5.318;2023-06-22T03:10:31;20.50;1.40
18392;DHT22;9322;50.932;5.318;2023-06-22T03:12:56;20.40;1.40
18392;DHT22;9322;50.932;5.318;2023-06-22T03:15:22;20.40;1.40
18392;DHT22;9322;50.932;5.318;2023-06-22T03:17:48;20.30;1.40
18392;DHT22;9322;50.932;5.318;2023-06-22T03:20:14;20.20;1.40
18392;DHT22;9322;50.932;5.318;2023-06-22T03:22:40;20.20;1.40
18392;DHT22;9322;50.932;5.318;2023-06-22T03:25:10;20.30;1.40
18392;DHT22;9322;50.932;5.318;2023-06-22T03:27:40;20.20;1.40
18392;DHT22;9322;50.932;5.318;2023-06-22T03:30:08;20.30;1.40
18392;DHT22;9322;50.932;5.318;2023-06-22T03:32:34;20.30;1.40
18392;DHT22;9322;50.932;5.318;2023-06-22T03:35:00;20.30;1.40
18392;DHT22;9322;50.932;5.318;2023-06-22T03:37:26;20.30;1.40
18392;DHT22;9322;50.932;5.318;2023-06-22T03:39:53;20.30;1.40
18392;DHT22;9322;50.932;5.318;2023-06-22T03:42:19;20.30;1.40
18392;DHT22;9322;50.932;5.318;2023-06-22T03:44:44;20.30;1.40
18392;DHT22;9322;50.932;5.318;2023-06-22T03:47:11;20.30;1.40
18392;DHT22;9322;50.932;5.318;2023-06-22T03:49:37;20.40;1.40
18392;DHT22;9322;50.932;5.318;2023-06-22T03:52:03;20.40;1.40
18392;DHT22;9322;50.932;5.318;2023-06-22T03:54:29;20.50;1.40
18392;DHT22;9322;50.932;5.318;2023-06-22T03:56:56;20.50;1.40
18392;DHT22;9322;50.932;5.318;2023-06-22T03:59:22;20.50;1.40
18392;DHT22;9322;50.932;5.318;2023-06-22T04:01:48;20.50;1.40
18392;DHT22;9322;50.932;5.318;2023-06-22T04:04:14;20.60;1.40
18392;DHT22;9322;50.932;5.318;2023-06-22T04:06:39;20.60;1.40
18392;DHT22;9322;50.932;5.318;2023-06-22T04:09:08;20.60;1.40
18392;DHT22;9322;50.932;5.318;2023-06-22T04:11:33;20.70;1.40
18392;DHT22;9322;50.932;5.318;2023-06-22T04:13:59;20.80;1.40
18392;DHT22;9322;50.932;5.318;2023-06-22T04:16:25;20.60;1.40
18392;DHT22;9322;50.932;5.318;2023-06-22T04:18:51;20.50;1.40
18392;DHT22;9322;50.932;5.318;2023-06-22T04:21:16;20.60;1.40
18392;DHT22;9322;50.932;5.318;2023-06-22T04:23:42;20.70;1.40
18392;DHT22;9322;50.932;5.318;2023-06-22T04:26:08;20.70;1.40
18392;DHT22;9322;50.932;5.318;2023-06-22T04:28:34;20.70;1.40
18392;DHT22;9322;50.932;5.318;2023-06-22T04:31:03;20.70;1.40
18392;DHT22;9322;50.932;5.318;2023-06-22T04:33:30;20.70;1.40
18392;DHT22;9322;50.932;5.318;2023-06-22T04:35:56;20.90;1.40
18392;DHT22;9322;50.932;5.318;2023-06-22T04:38:26;20.90;1.40
18392;DHT22;9322;50.932;5.318;2023-06-22T04:40:52;21.00;1.40
18392;DHT22;9322;50.932;5.318;2023-06-22T04:43:19;21.00;1.40
18392;DHT22;9322;50.932;5.318;2023-06-22T04:45:44;21.10;1.40
18392;DHT22;9322;50.932;5.318;2023-06-22T04:48:10;21.10;1.40
18392;DHT22;9322;50.932;5.318;2023-06-22T04:50:41;21.00;1.40
18392;DHT22;9322;50.932;5.318;2023-06-22T04:53:07;21.00;1.40
18392;DHT22;9322;50.932;5.318;2023-06-22T04:55:35;21.00;1.40
18392;DHT22;9322;50.932;5.318;2023-06-22T04:58:03;21.00;1.40
18392;DHT22;9322;50.932;5.318;2023-06-22T05:00:30;21.00;1.40
18392;DHT22;9322;50.932;5.318;2023-06-22T05:02:56;21.00;1.40
18392;DHT22;9322;50.932;5.318;2023-06-22T05:05:23;21.10;1.40
18392;DHT22;9322;50.932;5.318;2023-06-22T05:07:51;21.00;1.40
18392;DHT22;9322;50.932;5.318;2023-06-22T05:10:19;21.10;1.40
18392;DHT22;9322;50.932;5.318;2023-06-22T05:12:46;21.00;1.40
18392;DHT22;9322;50.932;5.318;2023-06-22T05:15:11;20.80;1.40
18392;DHT22;9322;50.932;5.318;2023-06-22T05:17:37;20.60;1.40
18392;DHT22;9322;50.932;5.318;2023-06-22T05:20:09;20.50;1.40
18392;DHT22;9322;50.932;5.318;2023-06-22T05:22:35;20.40;1.40
18392;DHT22;9322;50.932;5.318;2023-06-22T05:25:01;20.40;1.40
18392;DHT22;9322;50.932;5.318;2023-06-22T05:27:26;20.40;1.40
18392;DHT22;9322;50.932;5.318;2023-06-22T05:29:52;20.30;1.40
18392;DHT22;9322;50.932;5.318;2023-06-22T05:32:18;20.40;1.40
18392;DHT22;9322;50.932;5.318;2023-06-22T05:34:44;20.40;1.40
18392;DHT22;9322;50.932;5.318;2023-06-22T05:37:10;20.40;1.40
18392;DHT22;9322;50.932;5.318;2023-06-22T05:39:36;20.20;1.40
18392;DHT22;9322;50.932;5.318;2023-06-22T05:42:05;20.10;1.40
18392;DHT22;9322;50.932;5.318;2023-06-22T05:44:31;20.00;1.40
18392;DHT22;9322;50.932;5.318;2023-06-22T05:46:56;20.10;1.40
18392;DHT22;9322;50.932;5.318;2023-06-22T05:49:22;20.10;1.40
18392;DHT22;9322;50.932;5.318;2023-06-22T05:51:48;20.10;1.40
18392;DHT22;9322;50.932;5.318;2023-06-22T05:54:14;20.20;1.40
18392;DHT22;9322;50.932;5.318;2023-06-22T05:56:41;20.20;1.40
18392;DHT22;9322;50.932;5.318;2023-06-22T05:59:06;20.20;1.40
18392;DHT22;9322;50.932;5.318;2023-06-22T06:01:32;20.30;1.40
18392;DHT22;9322;50.932;5.318;2023-06-22T06:04:02;20.50;1.40
18392;DHT22;9322;50.932;5.318;2023-06-22T06:06:29;20.50;1.40
18392;DHT22;9322;50.932;5.318;2023-06-22T06:08:55;20.30;1.40
18392;DHT22;9322;50.932;5.318;2023-06-22T06:11:22;20.30;1.40
18392;DHT22;9322;50.932;5.318;2023-06-22T06:13:48;20.40;1.40
18392;DHT22;9322;50.932;5.318;2023-06-22T06:16:14;20.40;1.40
18392;DHT22;9322;50.932;5.318;2023-06-22T06:18:40;20.50;1.40
18392;DHT22;9322;50.932;5.318;2023-06-22T06:21:05;20.60;1.40
18392;DHT22;9322;50.932;5.318;2023-06-22T06:23:31;20.40;1.40
18392;DHT22;9322;50.932;5.318;2023-06-22T06:25:57;20.60;1.40
18392;DHT22;9322;50.932;5.318;2023-06-22T06:28:24;20.80;1.40
18392;DHT22;9322;50.932;5.318;2023-06-22T06:30:50;20.90;1.40
18392;DHT22;9322;50.932;5.318;2023-06-22T06:33:17;21.00;1.40
18392;DHT22;9322;50.932;5.318;2023-06-22T06:35:43;21.00;1.40
18392;DHT22;9322;50.932;5.318;2023-06-22T06:38:08;21.30;1.40
18392;DHT22;9322;50.932;5.318;2023-06-22T06:40:34;21.40;1.40
18392;DHT22;9322;50.932;5.318;2023-06-22T06:43:00;21.40;1.40
18392;DHT22;9322;50.932;5.318;2023-06-22T06:45:26;21.40;1.40
18392;DHT22;9322;50.932;5.318;2023-06-22T06:47:53;21.50;1.40
18392;DHT22;9322;50.932;5.318;2023-06-22T06:50:19;21.60;1.40
18392;DHT22;9322;50.932;5.318;2023-06-22T06:52:45;21.90;1.40
18392;DHT22;9322;50.932;5.318;2023-06-22T06:55:11;21.80;1.40
18392;DHT22;9322;50.932;5.318;2023-06-22T06:57:38;22.10;1.40
18392;DHT22;9322;50.932;5.318;2023-06-22T07:00:09;22.20;1.40
18392;DHT22;9322;50.932;5.318;2023-06-22T07:02:41;22.20;1.40
18392;DHT22;9322;50.932;5.318;2023-06-22T07:05:07;22.10;1.40
18392;DHT22;9322;50.932;5.318;2023-06-22T07:07:33;22.30;1.40
18392;DHT22;9322;50.932;5.318;2023-06-22T07:09:59;22.60;1.40
18392;DHT22;9322;50.932;5.318;2023-06-22T07:12:25;23.00;1.40
18392;DHT22;9322;50.932;5.318;2023-06-22T07:14:52;23.00;1.40
18392;DHT22;9322;50.932;5.318;2023-06-22T07:17:18;23.50;1.40
18392;DHT22;9322;50.932;5.318;2023-06-22T07:19:45;24.00;1.40
18392;DHT22;9322;50.932;5.318;2023-06-22T07:22:10;24.20;1.40
18392;DHT22;9322;50.932;5.318;2023-06-22T07:24:36;23.90;1.40
18392;DHT22;9322;50.932;5.318;2023-06-22T07:27:03;23.60;1.40
18392;DHT22;9322;50.932;5.318;2023-06-22T07:29:29;23.80;1.40
18392;DHT22;9322;50.932;5.318;2023-06-22T07:31:55;24.00;1.40
18392;DHT22;9322;50.932;5.318;2023-06-22T07:34:22;24.10;1.40
18392;DHT22;9322;50.932;5.318;2023-06-22T07:36:47;23.80;1.40
18392;DHT22;9322;50.932;5.318;2023-06-22T07:39:13;23.60;1.40
18392;DHT22;9322;50.932;5.318;2023-06-22T07:41:40;23.80;1.40
18392;DHT22;9322;50.932;5.318;2023-06-22T07:44:06;23.50;1.40
18392;DHT22;9322;50.932;5.318;2023-06-22T07:46:32;23.50;1.40
18392;DHT22;9322;50.932;5.318;2023-06-22T07:48:57;23.40;1.40
18392;DHT22;9322;50.932;5.318;2023-06-22T07:51:25;23.50;1.40
18392;DHT22;9322;50.932;5.318;2023-06-22T07:53:51;23.50;1.40
18392;DHT22;9322;50.932;5.318;2023-06-22T07:56:17;23.50;1.40
18392;DHT22;9322;50.932;5.318;2023-06-22T07:58:46;23.40;1.40
18392;DHT22;9322;50.932;5.318;2023-06-22T08:01:16;23.50;1.40
18392;DHT22;9322;50.932;5.318;2023-06-22T08:03:42;23.40;1.40
18392;DHT22;9322;50.932;5.318;2023-06-22T08:06:08;23.30;1.40
18392;DHT22;9322;50.932;5.318;2023-06-22T08:08:35;23.30;1.40
18392;DHT22;9322;50.932;5.318;2023-06-22T08:11:01;23.60;1.40
18392;DHT22;9322;50.932;5.318;2023-06-22T08:13:27;24.10;1.40
18392;DHT22;9322;50.932;5.318;2023-06-22T08:15:52;24.40;1.40
18392;DHT22;9322;50.932;5.318;2023-06-22T08:18:18;24.50;1.40
18392;DHT22;9322;50.932;5.318;2023-06-22T08:20:44;24.50;1.40
18392;DHT22;9322;50.932;5.318;2023-06-22T08:23:09;24.50;1.40
18392;DHT22;9322;50.932;5.318;2023-06-22T08:25:35;24.40;1.40
18392;DHT22;9322;50.932;5.318;2023-06-22T08:28:02;24.30;1.40
18392;DHT22;9322;50.932;5.318;2023-06-22T08:30:28;24.70;1.40
18392;DHT22;9322;50.932;5.318;2023-06-22T08:32:54;24.90;1.40
18392;DHT22;9322;50.932;5.318;2023-06-22T08:35:22;24.90;1.40
18392;DHT22;9322;50.932;5.318;2023-06-22T08:37:48;24.90;1.40
18392;DHT22;9322;50.932;5.318;2023-06-22T08:40:19;25.40;1.40
18392;DHT22;9322;50.932;5.318;2023-06-22T08:42:46;25.90;1.40
18392;DHT22;9322;50.932;5.318;2023-06-22T08:45:12;25.90;1.40
18392;DHT22;9322;50.932;5.318;2023-06-22T08:47:39;25.60;1.40
18392;DHT22;9322;50.932;5.318;2023-06-22T08:50:07;25.10;1.40
18392;DHT22;9322;50.932;5.318;2023-06-22T08:52:34;25.00;1.40
18392;DHT22;9322;50.932;5.318;2023-06-22T08:55:00;25.10;1.40
18392;DHT22;9322;50.932;5.318;2023-06-22T08:57:26;24.90;1.40
18392;DHT22;9322;50.932;5.318;2023-06-22T08:59:51;25.00;1.40
18392;DHT22;9322;50.932;5.318;2023-06-22T09:02:18;25.20;1.40
18392;DHT22;9322;50.932;5.318;2023-06-22T09:04:46;24.90;1.40
18392;DHT22;9322;50.932;5.318;2023-06-22T09:07:11;24.60;1.40
18392;DHT22;9322;50.932;5.318;2023-06-22T09:09:37;24.40;1.40
18392;DHT22;9322;50.932;5.318;2023-06-22T09:12:03;24.30;1.40
18392;DHT22;9322;50.932;5.318;2023-06-22T09:14:29;24.20;1.40
18392;DHT22;9322;50.932;5.318;2023-06-22T09:16:55;24.40;1.40
18392;DHT22;9322;50.932;5.318;2023-06-22T09:19:20;24.20;1.40
18392;DHT22;9322;50.932;5.318;2023-06-22T09:21:46;24.00;1.40
18392;DHT22;9322;50.932;5.318;2023-06-22T09:24:12;23.90;1.40
18392;DHT22;9322;50.932;5.318;2023-06-22T09:26:38;23.90;1.40
18392;DHT22;9322;50.932;5.318;2023-06-22T09:29:07;23.80;1.40
18392;DHT22;9322;50.932;5.318;2023-06-22T09:31:32;23.80;1.40
18392;DHT22;9322;50.932;5.318;2023-06-22T09:33:58;24.10;1.40
18392;DHT22;9322;50.932;5.318;2023-06-22T09:36:23;24.40;1.40
18392;DHT22;9322;50.932;5.318;2023-06-22T09:38:49;24.50;1.40
18392;DHT22;9322;50.932;5.318;2023-06-22T09:41:24;24.30;1.40
18392;DHT22;9322;50.932;5.318;2023-06-22T09:43:50;24.50;1.40
18392;DHT22;9322;50.932;5.318;2023-06-22T09:46:16;24.30;1.40
18392;DHT22;9322;50.932;5.318;2023-06-22T09:48:42;24.30;1.40
18392;DHT22;9322;50.932;5.318;2023-06-22T09:51:08;24.30;1.40
18392;DHT22;9322;50.932;5.318;2023-06-22T09:53:33;24.30;1.40
18392;DHT22;9322;50.932;5.318;2023-06-22T09:56:00;24.30;1.40
18392;DHT22;9322;50.932;5.318;2023-06-22T09:58:27;24.50;1.40
18392;DHT22;9322;50.932;5.318;2023-06-22T10:00:53;24.60;1.40
18392;DHT22;9322;50.932;5.318;2023-06-22T10:03:20;24.60;1.40
18392;DHT22;9322;50.932;5.318;2023-06-22T10:05:46;24.50;1.40
18392;DHT22;9322;50.932;5.318;2023-06-22T10:08:12;24.40;1.40
18392;DHT22;9322;50.932;5.318;2023-06-22T10:10:37;24.30;1.40
18392;DHT22;9322;50.932;5.318;2023-06-22T10:13:09;24.20;1.40
18392;DHT22;9322;50.932;5.318;2023-06-22T10:15:38;24.10;1.40
18392;DHT22;9322;50.932;5.318;2023-06-22T10:18:03;24.10;1.40
18392;DHT22;9322;50.932;5.318;2023-06-22T10:20:29;23.80;1.40
18392;DHT22;9322;50.932;5.318;2023-06-22T10:22:55;23.70;1.40
18392;DHT22;9322;50.932;5.318;2023-06-22T10:25:21;23.40;1.40
18392;DHT22;9322;50.932;5.318;2023-06-22T10:27:47;23.10;1.40
18392;DHT22;9322;50.932;5.318;2023-06-22T10:30:13;22.90;1.40
18392;DHT22;9322;50.932;5.318;2023-06-22T10:32:40;22.80;1.40
18392;DHT22;9322;50.932;5.318;2023-06-22T10:35:06;22.70;1.40
18392;DHT22;9322;50.932;5.318;2023-06-22T10:37:32;22.50;1.40
18392;DHT22;9322;50.932;5.318;2023-06-22T10:39:58;22.30;1.40
18392;DHT22;9322;50.932;5.318;2023-06-22T10:42:23;22.10;1.40
18392;DHT22;9322;50.932;5.318;2023-06-22T10:44:49;22.00;1.40
18392;DHT22;9322;50.932;5.318;2023-06-22T10:47:15;21.80;1.40
18392;DHT22;9322;50.932;5.318;2023-06-22T10:49:41;21.80;1.40
18392;DHT22;9322;50.932;5.318;2023-06-22T10:52:07;21.90;1.40
18392;DHT22;9322;50.932;5.318;2023-06-22T10:54:34;22.10;1.40
18392;DHT22;9322;50.932;5.318;2023-06-22T10:57:00;22.20;1.40
18392;DHT22;9322;50.932;5.318;2023-06-22T10:59:25;22.20;1.40
18392;DHT22;9322;50.932;5.318;2023-06-22T11:01:53;22.20;1.40
18392;DHT22;9322;50.932;5.318;2023-06-22T11:04:18;22.30;1.40
18392;DHT22;9322;50.932;5.318;2023-06-22T11:06:44;22.40;1.40
18392;DHT22;9322;50.932;5.318;2023-06-22T11:09:10;22.30;1.40
18392;DHT22;9322;50.932;5.318;2023-06-22T11:11:35;22.20;1.40
18392;DHT22;9322;50.932;5.318;2023-06-22T11:14:01;22.40;1.40
18392;DHT22;9322;50.932;5.318;2023-06-22T11:16:27;22.40;1.40
18392;DHT22;9322;50.932;5.318;2023-06-22T11:18:52;22.40;1.40
18392;DHT22;9322;50.932;5.318;2023-06-22T11:21:18;22.60;1.40
18392;DHT22;9322;50.932;5.318;2023-06-22T11:23:44;23.00;1.40
18392;DHT22;9322;50.932;5.318;2023-06-22T11:26:10;23.00;1.40
18392;DHT22;9322;50.932;5.318;2023-06-22T11:28:36;23.60;1.40
18392;DHT22;9322;50.932;5.318;2023-06-22T11:31:01;24.00;1.40
18392;DHT22;9322;50.932;5.318;2023-06-22T11:33:27;24.10;1.40
18392;DHT22;9322;50.932;5.318;2023-06-22T11:35:53;24.30;1.40
18392;DHT22;9322;50.932;5.318;2023-06-22T11:38:18;24.50;1.40
18392;DHT22;9322;50.932;5.318;2023-06-22T11:40:44;24.30;1.40
18392;DHT22;9322;50.932;5.318;2023-06-22T11:43:09;23.70;1.40
18392;DHT22;9322;50.932;5.318;2023-06-22T11:45:35;23.30;1.40
18392;DHT22;9322;50.932;5.318;2023-06-22T11:48:01;23.00;1.40
18392;DHT22;9322;50.932;5.318;2023-06-22T11:50:26;22.40;1.40
18392;DHT22;9322;50.932;5.318;2023-06-22T11:52:54;22.30;1.40
18392;DHT22;9322;50.932;5.318;2023-06-22T11:55:19;22.20;1.40
18392;DHT22;9322;50.932;5.318;2023-06-22T11:57:56;22.40;1.40
18392;DHT22;9322;50.932;5.318;2023-06-22T12:00:24;22.20;1.40
18392;DHT22;9322;50.932;5.318;2023-06-22T12:02:50;21.90;1.40
18392;DHT22;9322;50.932;5.318;2023-06-22T12:05:19;21.70;1.40
18392;DHT22;9322;50.932;5.318;2023-06-22T12:07:46;21.50;1.40
18392;DHT22;9322;50.932;5.318;2023-06-22T12:10:12;21.60;1.40
18392;DHT22;9322;50.932;5.318;2023-06-22T12:12:38;21.40;1.40
18392;DHT22;9322;50.932;5.318;2023-06-22T12:15:04;21.40;1.40
18392;DHT22;9322;50.932;5.318;2023-06-22T12:17:30;21.30;1.40
18392;DHT22;9322;50.932;5.318;2023-06-22T12:19:56;21.10;1.40
18392;DHT22;9322;50.932;5.318;2023-06-22T12:22:21;21.30;1.40
18392;DHT22;9322;50.932;5.318;2023-06-22T12:24:47;21.40;1.40
18392;DHT22;9322;50.932;5.318;2023-06-22T12:27:13;21.20;1.40
18392;DHT22;9322;50.932;5.318;2023-06-22T12:29:41;21.10;1.40
18392;DHT22;9322;50.932;5.318;2023-06-22T12:32:07;21.00;1.40
18392;DHT22;9322;50.932;5.318;2023-06-22T12:34:33;21.00;1.40
18392;DHT22;9322;50.932;5.318;2023-06-22T12:36:58;20.80;1.40
18392;DHT22;9322;50.932;5.318;2023-06-22T12:39:24;20.70;1.40
18392;DHT22;9322;50.932;5.318;2023-06-22T12:41:49;20.70;1.40
18392;DHT22;9322;50.932;5.318;2023-06-22T12:44:15;20.60;1.40
18392;DHT22;9322;50.932;5.318;2023-06-22T12:46:41;20.70;1.40
18392;DHT22;9322;50.932;5.318;2023-06-22T12:49:06;20.60;1.40
18392;DHT22;9322;50.932;5.318;2023-06-22T12:51:32;20.70;1.40
18392;DHT22;9322;50.932;5.318;2023-06-22T12:53:58;20.50;1.40
18392;DHT22;9322;50.932;5.318;2023-06-22T12:56:24;20.40;1.40
18392;DHT22;9322;50.932;5.318;2023-06-22T12:58:50;20.30;1.40
18392;DHT22;9322;50.932;5.318;2023-06-22T13:01:16;20.20;1.40
18392;DHT22;9322;50.932;5.318;2023-06-22T13:03:43;20.20;1.40
18392;DHT22;9322;50.932;5.318;2023-06-22T13:06:09;20.10;1.40
18392;DHT22;9322;50.932;5.318;2023-06-22T13:08:34;20.10;1.40
18392;DHT22;9322;50.932;5.318;2023-06-22T13:11:00;20.10;1.40
18392;DHT22;9322;50.932;5.318;2023-06-22T13:13:26;20.00;1.40
18392;DHT22;9322;50.932;5.318;2023-06-22T13:15:53;20.00;1.40
18392;DHT22;9322;50.932;5.318;2023-06-22T13:18:19;20.20;1.40
18392;DHT22;9322;50.932;5.318;2023-06-22T13:20:45;20.10;1.40
18392;DHT22;9322;50.932;5.318;2023-06-22T13:23:11;20.00;1.40
18392;DHT22;9322;50.932;5.318;2023-06-22T13:25:37;19.80;1.40
18392;DHT22;9322;50.932;5.318;2023-06-22T13:28:03;19.70;1.40
18392;DHT22;9322;50.932;5.318;2023-06-22T13:30:28;19.70;1.40
18392;DHT22;9322;50.932;5.318;2023-06-22T13:32:54;19.60;1.40
18392;DHT22;9322;50.932;5.318;2023-06-22T13:35:20;19.50;1.40
18392;DHT22;9322;50.932;5.318;2023-06-22T13:37:46;19.60;1.40
18392;DHT22;9322;50.932;5.318;2023-06-22T13:40:11;19.50;1.40
18392;DHT22;9322;50.932;5.318;2023-06-22T13:42:37;19.50;1.40
18392;DHT22;9322;50.932;5.318;2023-06-22T13:45:03;19.40;1.40
18392;DHT22;9322;50.932;5.318;2023-06-22T13:47:30;19.50;1.40
18392;DHT22;9322;50.932;5.318;2023-06-22T13:49:56;19.40;1.40
18392;DHT22;9322;50.932;5.318;2023-06-22T13:52:23;19.40;1.40
18392;DHT22;9322;50.932;5.318;2023-06-22T13:54:49;19.50;1.40
18392;DHT22;9322;50.932;5.318;2023-06-22T13:57:14;19.40;1.40
18392;DHT22;9322;50.932;5.318;2023-06-22T13:59:40;19.20;1.40
18392;DHT22;9322;50.932;5.318;2023-06-22T14:02:06;19.30;1.40
18392;DHT22;9322;50.932;5.318;2023-06-22T14:04:32;19.30;1.40
18392;DHT22;9322;50.932;5.318;2023-06-22T14:06:58;19.20;1.40
18392;DHT22;9322;50.932;5.318;2023-06-22T14:09:24;19.10;1.40
18392;DHT22;9322;50.932;5.318;2023-06-22T14:11:50;19.10;1.40
18392;DHT22;9322;50.932;5.318;2023-06-22T14:14:16;19.10;1.40
18392;DHT22;9322;50.932;5.318;2023-06-22T14:16:42;18.90;1.40
18392;DHT22;9322;50.932;5.318;2023-06-22T14:19:07;19.00;1.40
18392;DHT22;9322;50.932;5.318;2023-06-22T14:21:33;18.90;1.40
18392;DHT22;9322;50.932;5.318;2023-06-22T14:23:58;18.90;1.40
18392;DHT22;9322;50.932;5.318;2023-06-22T14:26:24;18.90;1.40
18392;DHT22;9322;50.932;5.318;2023-06-22T14:28:50;18.90;1.40
18392;DHT22;9322;50.932;5.318;2023-06-22T14:31:18;18.90;1.40
18392;DHT22;9322;50.932;5.318;2023-06-22T14:33:46;18.70;1.40
18392;DHT22;9322;50.932;5.318;2023-06-22T14:36:13;18.70;1.40
18392;DHT22;9322;50.932;5.318;2023-06-22T14:38:39;18.80;1.40
18392;DHT22;9322;50.932;5.318;2023-06-22T14:41:04;18.80;1.40
18392;DHT22;9322;50.932;5.318;2023-06-22T14:43:30;18.80;1.40
18392;DHT22;9322;50.932;5.318;2023-06-22T14:45:56;18.70;1.40
18392;DHT22;9322;50.932;5.318;2023-06-22T14:48:21;18.70;1.40
18392;DHT22;9322;50.932;5.318;2023-06-22T14:50:47;18.70;1.40
18392;DHT22;9322;50.932;5.318;2023-06-22T14:53:13;18.80;1.40
18392;DHT22;9322;50.932;5.318;2023-06-22T14:55:40;18.80;1.40
18392;DHT22;9322;50.932;5.318;2023-06-22T14:58:05;18.90;1.40
18392;DHT22;9322;50.932;5.318;2023-06-22T15:00:31;18.70;1.40
18392;DHT22;9322;50.932;5.318;2023-06-22T15:02:57;18.60;1.40
18392;DHT22;9322;50.932;5.318;2023-06-22T15:05:24;18.60;1.40
18392;DHT22;9322;50.932;5.318;2023-06-22T15:07:50;18.60;1.40
18392;DHT22;9322;50.932;5.318;2023-06-22T15:10:16;18.60;1.40
18392;DHT22;9322;50.932;5.318;2023-06-22T15:12:42;18.70;1.40
18392;DHT22;9322;50.932;5.318;2023-06-22T15:15:08;18.70;1.40
18392;DHT22;9322;50.932;5.318;2023-06-22T15:17:34;18.70;1.40
18392;DHT22;9322;50.932;5.318;2023-06-22T15:19:59;18.60;1.40
18392;DHT22;9322;50.932;5.318;2023-06-22T15:22:25;18.60;1.40
18392;DHT22;9322;50.932;5.318;2023-06-22T15:24:51;18.50;1.40
18392;DHT22;9322;50.932;5.318;2023-06-22T15:27:19;18.60;1.40
18392;DHT22;9322;50.932;5.318;2023-06-22T15:29:45;18.60;1.40
18392;DHT22;9322;50.932;5.318;2023-06-22T15:32:11;18.60;1.40
18392;DHT22;9322;50.932;5.318;2023-06-22T15:34:38;18.60;1.40
18392;DHT22;9322;50.932;5.318;2023-06-22T15:37:04;18.50;1.40
18392;DHT22;9322;50.932;5.318;2023-06-22T15:39:29;18.60;1.40
18392;DHT22;9322;50.932;5.318;2023-06-22T15:41:55;18.30;1.40
18392;DHT22;9322;50.932;5.318;2023-06-22T15:44:22;18.40;1.40
18392;DHT22;9322;50.932;5.318;2023-06-22T15:46:48;18.40;1.40
18392;DHT22;9322;50.932;5.318;2023-06-22T15:49:15;18.50;1.40
18392;DHT22;9322;50.932;5.318;2023-06-22T15:51:41;18.50;1.40
18392;DHT22;9322;50.932;5.318;2023-06-22T15:54:06;18.40;1.40
18392;DHT22;9322;50.932;5.318;2023-06-22T15:56:32;18.60;1.40
18392;DHT22;9322;50.932;5.318;2023-06-22T15:58:57;18.50;1.40
18392;DHT22;9322;50.932;5.318;2023-06-22T16:01:24;18.60;1.40